sensor_id;sensor_type;location;lat;lon;timestamp;pressure;altitude;pressure_sealevel;temperature;humidity
11888;BME280;6003;42.756;23.130;2022-12-24T00:01:02;153209.91;;;3.11;100.00
11888;BME280;6003;42.756;23.130;2022-12-24T00:03:30;153181.03;;;3.00;100.00
11888;BME280;6003;42.756;23.130;2022-12-24T00:05:57;153148.16;;;2.87;100.00
11888;BME280;6003;42.756;23.130;2022-12-24T00:08:24;153103.50;;;2.69;100.00
11888;BME280;6003;42.756;23.130;2022-12-24T00:10:52;153085.13;;;2.62;100.00
11888;BME280;6003;42.756;23.130;2022-12-24T00:13:19;153061.47;;;2.53;100.00
11888;BME280;6003;42.756;23.130;2022-12-24T00:15:46;153029.97;;;2.41;100.00
11888;BME280;6003;42.756;23.130;2022-12-24T00:18:13;152976.16;;;2.20;100.00
11888;BME280;6003;42.756;23.130;2022-12-24T00:20:44;152945.97;;;2.08;100.00
11888;BME280;6003;42.756;23.130;2022-12-24T00:23:12;152928.94;;;2.01;100.00
11888;BME280;6003;42.756;23.130;2022-12-24T00:25:39;152930.22;;;2.02;100.00
11888;BME280;6003;42.756;23.130;2022-12-24T00:28:06;152936.81;;;2.05;100.00
11888;BME280;6003;42.756;23.130;2022-12-24T00:30:33;152930.22;;;2.02;100.00
11888;BME280;6003;42.756;23.130;2022-12-24T00:32:59;152896.09;;;1.89;100.00
11888;BME280;6003;42.756;23.130;2022-12-24T00:35:27;152882.97;;;1.84;100.00
11888;BME280;6003;42.756;23.130;2022-12-24T00:37:55;152872.47;;;1.79;100.00
11888;BME280;6003;42.756;23.130;2022-12-24T00:43:15;152875.09;;;1.80;100.00
11888;BME280;6003;42.756;23.130;2022-12-24T00:45:42;152884.25;;;1.84;100.00
11888;BME280;6003;42.756;23.130;2022-12-24T00:48:09;152875.09;;;1.80;100.00
11888;BME280;6003;42.756;23.130;2022-12-24T00:50:36;152833.13;;;1.64;100.00
11888;BME280;6003;42.756;23.130;2022-12-24T00:53:04;152846.22;;;1.69;100.00
11888;BME280;6003;42.756;23.130;2022-12-24T00:55:31;152859.34;;;1.74;100.00
11888;BME280;6003;42.756;23.130;2022-12-24T00:57:58;152871.19;;;1.79;100.00
11888;BME280;6003;42.756;23.130;2022-12-24T01:00:25;152892.19;;;1.87;100.00
11888;BME280;6003;42.756;23.130;2022-12-24T01:02:52;152911.84;;;1.95;100.00
11888;BME280;6003;42.756;23.130;2022-12-24T01:05:19;152911.84;;;1.95;100.00
11888;BME280;6003;42.756;23.130;2022-12-24T01:07:46;152898.69;;;1.90;100.00
11888;BME280;6003;42.756;23.130;2022-12-24T01:10:16;152898.69;;;1.90;100.00
11888;BME280;6003;42.756;23.130;2022-12-24T01:12:46;152897.41;;;1.89;100.00
11888;BME280;6003;42.756;23.130;2022-12-24T01:15:14;152898.69;;;1.90;100.00
11888;BME280;6003;42.756;23.130;2022-12-24T01:17:41;152892.19;;;1.87;100.00
11888;BME280;6003;42.756;23.130;2022-12-24T01:20:12;152900.06;;;1.90;100.00
11888;BME280;6003;42.756;23.130;2022-12-24T01:22:39;152893.47;;;1.88;100.00
11888;BME280;6003;42.756;23.130;2022-12-24T01:25:07;152888.22;;;1.86;100.00
11888;BME280;6003;42.756;23.130;2022-12-24T01:27:35;152892.19;;;1.87;100.00
11888;BME280;6003;42.756;23.130;2022-12-24T01:30:03;152885.63;;;1.85;100.00
11888;BME280;6003;42.756;23.130;2022-12-24T01:32:30;152882.97;;;1.84;100.00
11888;BME280;6003;42.756;23.130;2022-12-24T01:34:57;152882.97;;;1.84;100.00
11888;BME280;6003;42.756;23.130;2022-12-24T01:37:25;152873.78;;;1.80;100.00
11888;BME280;6003;42.756;23.130;2022-12-24T01:40:09;152856.75;;;1.73;100.00
11888;BME280;6003;42.756;23.130;2022-12-24T01:42:58;152837.03;;;1.66;100.00
11888;BME280;6003;42.756;23.130;2022-12-24T01:45:46;152816.03;;;1.57;100.00
11888;BME280;6003;42.756;23.130;2022-12-24T01:48:20;152768.84;;;1.39;100.00
11888;BME280;6003;42.756;23.130;2022-12-24T01:50:49;152762.28;;;1.37;100.00
11888;BME280;6003;42.756;23.130;2022-12-24T01:53:19;152742.59;;;1.29;100.00
11888;BME280;6003;42.756;23.130;2022-12-24T01:55:46;152739.97;;;1.28;100.00
11888;BME280;6003;42.756;23.130;2022-12-24T01:58:16;152722.94;;;1.21;100.00
11888;BME280;6003;42.756;23.130;2022-12-24T02:00:44;152711.13;;;1.17;100.00
11888;BME280;6003;42.756;23.130;2022-12-24T02:03:11;152716.38;;;1.19;100.00
11888;BME280;6003;42.756;23.130;2022-12-24T02:05:43;152726.84;;;1.23;100.00
11888;BME280;6003;42.756;23.130;2022-12-24T02:08:12;152738.69;;;1.27;100.00
11888;BME280;6003;42.756;23.130;2022-12-24T02:10:40;152726.84;;;1.23;100.00
11888;BME280;6003;42.756;23.130;2022-12-24T02:13:07;152728.16;;;1.23;100.00
11888;BME280;6003;42.756;23.130;2022-12-24T02:15:46;152736.03;;;1.26;100.00
11888;BME280;6003;42.756;23.130;2022-12-24T02:18:21;152736.03;;;1.26;100.00
11888;BME280;6003;42.756;23.130;2022-12-24T02:21:13;152657.38;;;0.96;100.00
11888;BME280;6003;42.756;23.130;2022-12-24T02:27:02;152724.25;;;1.22;100.00
11888;BME280;6003;42.756;23.130;2022-12-24T02:32:32;152764.88;;;1.38;100.00
11888;BME280;6003;42.756;23.130;2022-12-24T02:35:04;152779.31;;;1.43;100.00
11888;BME280;6003;42.756;23.130;2022-12-24T02:37:36;152796.41;;;1.50;100.00
11888;BME280;6003;42.756;23.130;2022-12-24T02:40:14;152797.69;;;1.50;100.00
11888;BME280;6003;42.756;23.130;2022-12-24T02:42:48;152823.91;;;1.61;100.00
11888;BME280;6003;42.756;23.130;2022-12-24T02:45:21;152817.34;;;1.58;100.00
11888;BME280;6003;42.756;23.130;2022-12-24T02:47:49;152825.22;;;1.61;100.00
11888;BME280;6003;42.756;23.130;2022-12-24T02:50:17;152827.88;;;1.62;100.00
11888;BME280;6003;42.756;23.130;2022-12-24T02:52:46;152822.59;;;1.60;100.00
11888;BME280;6003;42.756;23.130;2022-12-24T02:55:16;152825.22;;;1.61;100.00
11888;BME280;6003;42.756;23.130;2022-12-24T02:57:55;152841.00;;;1.67;100.00
11888;BME280;6003;42.756;23.130;2022-12-24T03:00:33;152850.19;;;1.71;100.00
11888;BME280;6003;42.756;23.130;2022-12-24T03:03:19;152856.75;;;1.73;100.00
11888;BME280;6003;42.756;23.130;2022-12-24T03:05:50;152864.59;;;1.76;100.00
11888;BME280;6003;42.756;23.130;2022-12-24T03:08:28;152875.09;;;1.80;100.00
11888;BME280;6003;42.756;23.130;2022-12-24T03:11:01;152888.22;;;1.86;100.00
11888;BME280;6003;42.756;23.130;2022-12-24T03:13:31;152892.19;;;1.87;100.00
11888;BME280;6003;42.756;23.130;2022-12-24T03:16:02;152914.50;;;1.96;100.00
11888;BME280;6003;42.756;23.130;2022-12-24T03:18:30;152893.47;;;1.88;100.00
11888;BME280;6003;42.756;23.130;2022-12-24T03:21:00;152890.81;;;1.87;100.00
11888;BME280;6003;42.756;23.130;2022-12-24T03:23:32;152869.88;;;1.78;100.00
11888;BME280;6003;42.756;23.130;2022-12-24T03:26:03;152854.09;;;1.72;100.00
11888;BME280;6003;42.756;23.130;2022-12-24T03:28:32;152830.47;;;1.63;100.00
11888;BME280;6003;42.756;23.130;2022-12-24T03:31:03;152787.19;;;1.46;100.00
11888;BME280;6003;42.756;23.130;2022-12-24T03:33:31;152763.56;;;1.37;100.00
11888;BME280;6003;42.756;23.130;2022-12-24T03:35:58;152745.22;;;1.30;100.00
11888;BME280;6003;42.756;23.130;2022-12-24T03:38:24;152707.16;;;1.15;100.00
11888;BME280;6003;42.756;23.130;2022-12-24T03:40:51;152686.22;;;1.07;100.00
11888;BME280;6003;42.756;23.130;2022-12-24T03:43:19;152654.72;;;0.95;100.00
11888;BME280;6003;42.756;23.130;2022-12-24T03:45:46;152644.25;;;0.90;100.00
11888;BME280;6003;42.756;23.130;2022-12-24T03:48:14;152638.97;;;0.88;100.00
11888;BME280;6003;42.756;23.130;2022-12-24T03:50:41;152620.66;;;0.81;100.00
11888;BME280;6003;42.756;23.130;2022-12-24T03:53:08;152616.69;;;0.80;100.00
11888;BME280;6003;42.756;23.130;2022-12-24T03:55:37;152614.09;;;0.79;100.00
11888;BME280;6003;42.756;23.130;2022-12-24T03:58:04;152623.25;;;0.82;100.00
11888;BME280;6003;42.756;23.130;2022-12-24T04:00:31;152593.09;;;0.71;100.00
11888;BME280;6003;42.756;23.130;2022-12-24T04:02:57;152547.25;;;0.53;100.00
11888;BME280;6003;42.756;23.130;2022-12-24T04:05:26;152526.25;;;0.44;100.00
11888;BME280;6003;42.756;23.130;2022-12-24T04:07:52;152535.41;;;0.48;100.00
11888;BME280;6003;42.756;23.130;2022-12-24T04:10:19;152480.41;;;0.27;100.00
11888;BME280;6003;42.756;23.130;2022-12-24T04:12:46;152509.25;;;0.38;100.00
11888;BME280;6003;42.756;23.130;2022-12-24T04:15:14;152509.25;;;0.38;100.00
11888;BME280;6003;42.756;23.130;2022-12-24T04:17:40;152510.53;;;0.38;100.00
11888;BME280;6003;42.756;23.130;2022-12-24T04:20:08;152471.19;;;0.23;100.00
11888;BME280;6003;42.756;23.130;2022-12-24T04:22:37;152486.97;;;0.29;100.00
11888;BME280;6003;42.756;23.130;2022-12-24T04:25:04;152514.44;;;0.40;100.00
11888;BME280;6003;42.756;23.130;2022-12-24T04:27:31;152517.09;;;0.41;100.00
11888;BME280;6003;42.756;23.130;2022-12-24T04:29:58;152526.25;;;0.44;100.00
11888;BME280;6003;42.756;23.130;2022-12-24T04:32:25;152514.44;;;0.40;100.00
11888;BME280;6003;42.756;23.130;2022-12-24T04:34:52;152521.00;;;0.42;100.00
11888;BME280;6003;42.756;23.130;2022-12-24T04:37:18;152521.00;;;0.42;100.00
11888;BME280;6003;42.756;23.130;2022-12-24T04:39:47;152503.97;;;0.36;100.00
11888;BME280;6003;42.756;23.130;2022-12-24T04:42:13;152489.56;;;0.30;100.00
11888;BME280;6003;42.756;23.130;2022-12-24T04:44:40;152494.81;;;0.32;100.00
11888;BME280;6003;42.756;23.130;2022-12-24T04:47:07;152503.97;;;0.36;100.00
11888;BME280;6003;42.756;23.130;2022-12-24T04:49:45;152507.88;;;0.37;100.00
11888;BME280;6003;42.756;23.130;2022-12-24T04:52:12;152518.41;;;0.41;100.00
11888;BME280;6003;42.756;23.130;2022-12-24T04:54:39;152528.88;;;0.45;100.00
11888;BME280;6003;42.756;23.130;2022-12-24T04:57:07;152523.66;;;0.43;100.00
11888;BME280;6003;42.756;23.130;2022-12-24T04:59:34;152530.16;;;0.46;100.00
11888;BME280;6003;42.756;23.130;2022-12-24T05:02:01;152549.84;;;0.54;100.00
11888;BME280;6003;42.756;23.130;2022-12-24T05:04:27;152564.25;;;0.59;100.00
11888;BME280;6003;42.756;23.130;2022-12-24T05:06:54;152586.56;;;0.68;100.00
11888;BME280;6003;42.756;23.130;2022-12-24T05:09:58;152611.50;;;0.78;100.00
11888;BME280;6003;42.756;23.130;2022-12-24T05:12:26;152621.97;;;0.82;100.00
11888;BME280;6003;42.756;23.130;2022-12-24T05:14:53;152632.41;;;0.86;100.00
11888;BME280;6003;42.756;23.130;2022-12-24T05:17:21;152642.94;;;0.90;100.00
11888;BME280;6003;42.756;23.130;2022-12-24T05:19:47;152686.22;;;1.07;100.00
11888;BME280;6003;42.756;23.130;2022-12-24T05:22:14;152690.13;;;1.08;100.00
11888;BME280;6003;42.756;23.130;2022-12-24T05:24:58;152698.00;;;1.11;100.00
11888;BME280;6003;42.756;23.130;2022-12-24T05:27:43;152722.94;;;1.21;100.00
11888;BME280;6003;42.756;23.130;2022-12-24T05:30:11;152717.69;;;1.19;100.00
11888;BME280;6003;42.756;23.130;2022-12-24T05:32:38;152730.81;;;1.24;100.00
11888;BME280;6003;42.756;23.130;2022-12-24T05:35:05;152732.09;;;1.25;100.00
11888;BME280;6003;42.756;23.130;2022-12-24T05:37:32;152754.41;;;1.33;100.00
11888;BME280;6003;42.756;23.130;2022-12-24T05:39:59;152775.41;;;1.42;100.00
11888;BME280;6003;42.756;23.130;2022-12-24T05:42:25;152799.00;;;1.51;100.00
11888;BME280;6003;42.756;23.130;2022-12-24T05:44:54;152810.84;;;1.55;100.00
11888;BME280;6003;42.756;23.130;2022-12-24T05:47:21;152846.22;;;1.69;100.00
11888;BME280;6003;42.756;23.130;2022-12-24T05:49:47;152876.41;;;1.81;100.00
11888;BME280;6003;42.756;23.130;2022-12-24T05:52:14;152890.81;;;1.87;100.00
11888;BME280;6003;42.756;23.130;2022-12-24T05:54:41;152911.84;;;1.95;100.00
11888;BME280;6003;42.756;23.130;2022-12-24T05:57:08;152872.47;;;1.79;100.00
11888;BME280;6003;42.756;23.130;2022-12-24T05:59:34;152882.97;;;1.84;100.00
11888;BME280;6003;42.756;23.130;2022-12-24T06:02:03;152913.13;;;1.95;100.00
11888;BME280;6003;42.756;23.130;2022-12-24T06:04:30;152927.56;;;2.01;100.00
11888;BME280;6003;42.756;23.130;2022-12-24T06:06:57;152905.25;;;1.92;100.00
11888;BME280;6003;42.756;23.130;2022-12-24T06:09:23;152948.59;;;2.09;100.00
11888;BME280;6003;42.756;23.130;2022-12-24T06:11:50;152940.72;;;2.06;100.00
11888;BME280;6003;42.756;23.130;2022-12-24T06:14:17;152932.84;;;2.03;100.00
11888;BME280;6003;42.756;23.130;2022-12-24T06:16:44;152944.66;;;2.08;100.00
11888;BME280;6003;42.756;23.130;2022-12-24T06:19:12;152957.75;;;2.13;100.00
11888;BME280;6003;42.756;23.130;2022-12-24T06:21:39;152936.81;;;2.05;100.00
11888;BME280;6003;42.756;23.130;2022-12-24T06:24:06;152915.78;;;1.96;100.00
11888;BME280;6003;42.756;23.130;2022-12-24T06:26:33;152936.81;;;2.05;100.00
11888;BME280;6003;42.756;23.130;2022-12-24T06:29:00;152928.94;;;2.01;100.00
11888;BME280;6003;42.756;23.130;2022-12-24T06:31:27;152940.72;;;2.06;100.00
11888;BME280;6003;42.756;23.130;2022-12-24T06:33:53;152924.97;;;2.00;100.00
11888;BME280;6003;42.756;23.130;2022-12-24T06:36:23;152940.72;;;2.06;100.00
11888;BME280;6003;42.756;23.130;2022-12-24T06:38:52;152940.72;;;2.06;100.00
11888;BME280;6003;42.756;23.130;2022-12-24T06:41:19;152948.59;;;2.09;100.00
11888;BME280;6003;42.756;23.130;2022-12-24T06:43:47;152977.47;;;2.20;100.00
11888;BME280;6003;42.756;23.130;2022-12-24T06:46:14;152980.06;;;2.21;100.00
11888;BME280;6003;42.756;23.130;2022-12-24T06:48:42;152969.59;;;2.17;100.00
11888;BME280;6003;42.756;23.130;2022-12-24T06:51:10;152947.28;;;2.09;100.00
11888;BME280;6003;42.756;23.130;2022-12-24T06:53:38;152981.44;;;2.22;100.00
11888;BME280;6003;42.756;23.130;2022-12-24T06:56:07;152988.00;;;2.24;100.00
11888;BME280;6003;42.756;23.130;2022-12-24T06:58:34;153002.38;;;2.30;100.00
11888;BME280;6003;42.756;23.130;2022-12-24T07:01:02;153012.91;;;2.34;100.00
11888;BME280;6003;42.756;23.130;2022-12-24T07:03:30;153043.09;;;2.46;100.00
11888;BME280;6003;42.756;23.130;2022-12-24T07:05:57;153050.97;;;2.49;100.00
11888;BME280;6003;42.756;23.130;2022-12-24T07:08:24;153069.41;;;2.56;100.00
11888;BME280;6003;42.756;23.130;2022-12-24T07:10:53;153093.03;;;2.65;100.00
11888;BME280;6003;42.756;23.130;2022-12-24T07:13:20;153119.25;;;2.76;100.00
11888;BME280;6003;42.756;23.130;2022-12-24T07:15:56;153137.66;;;2.83;100.00
11888;BME280;6003;42.756;23.130;2022-12-24T07:18:23;153161.28;;;2.92;100.00
11888;BME280;6003;42.756;23.130;2022-12-24T07:20:50;153170.47;;;2.96;100.00
11888;BME280;6003;42.756;23.130;2022-12-24T07:23:17;153177.06;;;2.98;100.00
11888;BME280;6003;42.756;23.130;2022-12-24T07:25:44;153179.66;;;2.99;100.00
11888;BME280;6003;42.756;23.130;2022-12-24T07:28:12;153208.56;;;3.10;100.00
11888;BME280;6003;42.756;23.130;2022-12-24T07:30:39;153229.59;;;3.19;100.00
11888;BME280;6003;42.756;23.130;2022-12-24T07:33:06;153250.63;;;3.27;100.00
11888;BME280;6003;42.756;23.130;2022-12-24T07:35:33;153249.31;;;3.26;100.00
11888;BME280;6003;42.756;23.130;2022-12-24T07:38:01;153275.56;;;3.36;100.00
11888;BME280;6003;42.756;23.130;2022-12-24T07:40:28;153303.19;;;3.47;100.00
11888;BME280;6003;42.756;23.130;2022-12-24T07:42:55;153324.22;;;3.55;100.00
11888;BME280;6003;42.756;23.130;2022-12-24T07:45:23;153392.56;;;3.82;100.00
11888;BME280;6003;42.756;23.130;2022-12-24T07:47:49;153450.41;;;4.04;100.00
11888;BME280;6003;42.756;23.130;2022-12-24T07:50:16;153492.50;;;4.21;100.00
11888;BME280;6003;42.756;23.130;2022-12-24T07:52:43;153541.13;;;4.40;100.00
11888;BME280;6003;42.756;23.130;2022-12-24T07:55:10;153518.75;;;4.31;100.00
11888;BME280;6003;42.756;23.130;2022-12-24T07:57:37;153512.19;;;4.28;100.00
11888;BME280;6003;42.756;23.130;2022-12-24T08:00:05;153516.16;;;4.30;100.00
11888;BME280;6003;42.756;23.130;2022-12-24T08:02:33;153429.34;;;3.96;100.00
11888;BME280;6003;42.756;23.130;2022-12-24T08:05:01;153454.38;;;4.06;100.00
11888;BME280;6003;42.756;23.130;2022-12-24T08:07:27;153468.84;;;4.12;100.00
11888;BME280;6003;42.756;23.130;2022-12-24T08:09:54;153487.22;;;4.19;100.00
11888;BME280;6003;42.756;23.130;2022-12-24T08:12:22;153483.28;;;4.17;100.00
11888;BME280;6003;42.756;23.130;2022-12-24T08:14:49;153495.09;;;4.22;100.00
11888;BME280;6003;42.756;23.130;2022-12-24T08:17:16;153534.53;;;4.37;100.00
11888;BME280;6003;42.756;23.130;2022-12-24T08:19:44;153546.41;;;4.42;100.00
11888;BME280;6003;42.756;23.130;2022-12-24T08:22:11;153546.41;;;4.42;100.00
11888;BME280;6003;42.756;23.130;2022-12-24T08:24:38;153488.53;;;4.19;100.00
11888;BME280;6003;42.756;23.130;2022-12-24T08:27:05;153508.25;;;4.27;100.00
11888;BME280;6003;42.756;23.130;2022-12-24T08:29:32;153505.66;;;4.26;100.00
11888;BME280;6003;42.756;23.130;2022-12-24T08:31:58;153521.44;;;4.32;100.00
11888;BME280;6003;42.756;23.130;2022-12-24T08:34:26;153560.88;;;4.47;100.00
11888;BME280;6003;42.756;23.130;2022-12-24T08:36:54;153571.38;;;4.51;100.00
11888;BME280;6003;42.756;23.130;2022-12-24T08:39:21;153613.47;;;4.68;100.00
11888;BME280;6003;42.756;23.130;2022-12-24T08:41:49;153662.16;;;4.87;100.00
11888;BME280;6003;42.756;23.130;2022-12-24T08:44:16;153713.47;;;5.07;100.00
11888;BME280;6003;42.756;23.130;2022-12-24T08:46:43;153760.84;;;5.25;100.00
11888;BME280;6003;42.756;23.130;2022-12-24T08:49:09;153796.38;;;5.39;100.00
11888;BME280;6003;42.756;23.130;2022-12-24T08:51:36;153843.75;;;5.57;100.00
11888;BME280;6003;42.756;23.130;2022-12-24T08:54:05;153887.22;;;5.74;100.00
11888;BME280;6003;42.756;23.130;2022-12-24T08:56:32;153942.59;;;5.96;100.00
11888;BME280;6003;42.756;23.130;2022-12-24T08:58:59;154003.16;;;6.19;100.00
11888;BME280;6003;42.756;23.130;2022-12-24T09:01:26;154051.88;;;6.38;100.00
11888;BME280;6003;42.756;23.130;2022-12-24T09:03:53;154078.25;;;6.48;100.00
11888;BME280;6003;42.756;23.130;2022-12-24T09:06:20;154109.84;;;6.61;100.00
11888;BME280;6003;42.756;23.130;2022-12-24T09:08:48;154158.63;;;6.80;100.00
11888;BME280;6003;42.756;23.130;2022-12-24T09:11:17;154152.03;;;6.77;100.00
11888;BME280;6003;42.756;23.130;2022-12-24T09:13:45;154105.91;;;6.59;98.31
11888;BME280;6003;42.756;23.130;2022-12-24T09:16:12;154034.75;;;6.31;97.82
11888;BME280;6003;42.756;23.130;2022-12-24T09:18:39;153978.09;;;6.09;98.76
11888;BME280;6003;42.756;23.130;2022-12-24T09:21:07;153947.81;;;5.98;99.15
11888;BME280;6003;42.756;23.130;2022-12-24T09:23:36;153937.31;;;5.94;99.35
11888;BME280;6003;42.756;23.130;2022-12-24T09:26:05;153928.06;;;5.90;99.62
11888;BME280;6003;42.756;23.130;2022-12-24T09:28:34;153903.00;;;5.80;99.77
11888;BME280;6003;42.756;23.130;2022-12-24T09:31:03;153881.94;;;5.72;99.72
11888;BME280;6003;42.756;23.130;2022-12-24T09:33:31;153833.25;;;5.53;99.37
11888;BME280;6003;42.756;23.130;2022-12-24T09:35:59;153839.84;;;5.56;100.00
11888;BME280;6003;42.756;23.130;2022-12-24T09:38:27;153874.03;;;5.69;100.00
11888;BME280;6003;42.756;23.130;2022-12-24T09:40:55;153871.41;;;5.68;100.00
11888;BME280;6003;42.756;23.130;2022-12-24T09:43:25;153881.94;;;5.72;100.00
11888;BME280;6003;42.756;23.130;2022-12-24T09:46:04;153926.69;;;5.89;100.00
11888;BME280;6003;42.756;23.130;2022-12-24T09:48:33;153959.69;;;6.02;100.00
11888;BME280;6003;42.756;23.130;2022-12-24T09:51:03;153997.88;;;6.17;100.00
11888;BME280;6003;42.756;23.130;2022-12-24T09:53:36;154017.66;;;6.25;100.00
11888;BME280;6003;42.756;23.130;2022-12-24T09:56:11;154026.84;;;6.28;100.00
11888;BME280;6003;42.756;23.130;2022-12-24T09:58:42;154018.97;;;6.25;99.29
11888;BME280;6003;42.756;23.130;2022-12-24T10:01:14;153995.25;;;6.16;99.19
11888;BME280;6003;42.756;23.130;2022-12-24T10:03:42;153970.22;;;6.06;100.00
11888;BME280;6003;42.756;23.130;2022-12-24T10:06:12;153963.63;;;6.04;100.00
11888;BME280;6003;42.756;23.130;2022-12-24T10:08:51;153967.59;;;6.05;100.00
11888;BME280;6003;42.756;23.130;2022-12-24T10:11:26;153971.50;;;6.07;100.00
11888;BME280;6003;42.756;23.130;2022-12-24T10:14:06;153989.97;;;6.14;100.00
11888;BME280;6003;42.756;23.130;2022-12-24T10:16:47;153995.25;;;6.16;100.00
11888;BME280;6003;42.756;23.130;2022-12-24T10:22:28;154074.25;;;6.47;100.00
11888;BME280;6003;42.756;23.130;2022-12-24T10:25:03;154111.16;;;6.61;99.20
11888;BME280;6003;42.756;23.130;2022-12-24T10:27:37;154140.16;;;6.72;99.60
11888;BME280;6003;42.756;23.130;2022-12-24T10:30:12;154169.13;;;6.84;99.46
11888;BME280;6003;42.756;23.130;2022-12-24T10:32:41;154178.34;;;6.87;98.83
11888;BME280;6003;42.756;23.130;2022-12-24T10:35:18;154134.91;;;6.70;97.92
11888;BME280;6003;42.756;23.130;2022-12-24T10:37:48;154119.06;;;6.64;97.10
11888;BME280;6003;42.756;23.130;2022-12-24T10:40:27;154126.97;;;6.67;96.99
11888;BME280;6003;42.756;23.130;2022-12-24T10:42:56;154158.63;;;6.80;98.27
11888;BME280;6003;42.756;23.130;2022-12-24T10:45:28;154190.22;;;6.92;97.86
11888;BME280;6003;42.756;23.130;2022-12-24T10:48:04;154203.44;;;6.97;95.90
11888;BME280;6003;42.756;23.130;2022-12-24T10:50:38;154200.75;;;6.96;95.96
11888;BME280;6003;42.756;23.130;2022-12-24T10:53:18;154192.84;;;6.93;96.66
11888;BME280;6003;42.756;23.130;2022-12-24T10:55:49;154195.53;;;6.94;96.52
11888;BME280;6003;42.756;23.130;2022-12-24T10:58:17;154202.13;;;6.96;96.32
11888;BME280;6003;42.756;23.130;2022-12-24T11:00:49;154224.53;;;7.05;95.34
11888;BME280;6003;42.756;23.130;2022-12-24T11:03:23;154275.94;;;7.25;97.38
11888;BME280;6003;42.756;23.130;2022-12-24T11:06:03;154374.81;;;7.63;97.07
11888;BME280;6003;42.756;23.130;2022-12-24T11:08:30;154465.78;;;7.99;97.58
11888;BME280;6003;42.756;23.130;2022-12-24T11:10:59;154509.34;;;8.16;94.91
11888;BME280;6003;42.756;23.130;2022-12-24T11:13:28;154556.81;;;8.34;94.95
11888;BME280;6003;42.756;23.130;2022-12-24T11:16:01;154649.25;;;8.70;95.08
11888;BME280;6003;42.756;23.130;2022-12-24T11:18:32;154717.88;;;8.96;92.34
11888;BME280;6003;42.756;23.130;2022-12-24T11:21:00;154798.44;;;9.27;92.17
11888;BME280;6003;42.756;23.130;2022-12-24T11:23:28;154914.66;;;9.73;92.46
11888;BME280;6003;42.756;23.130;2022-12-24T11:25:56;155038.81;;;10.21;91.86
11888;BME280;6003;42.756;23.130;2022-12-24T11:28:25;155111.56;;;10.49;87.64
11888;BME280;6003;42.756;23.130;2022-12-24T11:30:58;155123.47;;;10.53;86.83
11888;BME280;6003;42.756;23.130;2022-12-24T11:33:26;155119.50;;;10.52;85.23
11888;BME280;6003;42.756;23.130;2022-12-24T11:36:00;155082.47;;;10.37;85.20
11888;BME280;6003;42.756;23.130;2022-12-24T11:38:29;155005.81;;;10.08;85.65
11888;BME280;6003;42.756;23.130;2022-12-24T11:41:06;154948.97;;;9.86;86.79
11888;BME280;6003;42.756;23.130;2022-12-24T11:43:39;154917.28;;;9.74;87.37
11888;BME280;6003;42.756;23.130;2022-12-24T11:46:13;154950.28;;;9.86;88.47
11888;BME280;6003;42.756;23.130;2022-12-24T11:48:40;154967.50;;;9.93;88.15
11888;BME280;6003;42.756;23.130;2022-12-24T11:51:20;154959.59;;;9.90;88.45
11888;BME280;6003;42.756;23.130;2022-12-24T11:53:49;154935.75;;;9.81;89.19
11888;BME280;6003;42.756;23.130;2022-12-24T11:56:26;154877.69;;;9.58;89.39
11888;BME280;6003;42.756;23.130;2022-12-24T11:58:57;154838.03;;;9.43;89.43
11888;BME280;6003;42.756;23.130;2022-12-24T12:01:29;154847.25;;;9.46;90.48
11888;BME280;6003;42.756;23.130;2022-12-24T12:03:59;154864.47;;;9.53;89.83
11888;BME280;6003;42.756;23.130;2022-12-24T12:06:32;154922.59;;;9.76;89.19
11888;BME280;6003;42.756;23.130;2022-12-24T12:09:04;154945.03;;;9.84;88.85
11888;BME280;6003;42.756;23.130;2022-12-24T12:11:33;154917.28;;;9.74;88.82
11888;BME280;6003;42.756;23.130;2022-12-24T12:14:02;154921.22;;;9.75;90.50
11888;BME280;6003;42.756;23.130;2022-12-24T12:16:37;154931.81;;;9.79;89.67
11888;BME280;6003;42.756;23.130;2022-12-24T12:19:21;154933.13;;;9.80;89.11
11888;BME280;6003;42.756;23.130;2022-12-24T12:21:51;154929.19;;;9.78;89.48
11888;BME280;6003;42.756;23.130;2022-12-24T12:24:21;154935.75;;;9.81;89.55
11888;BME280;6003;42.756;23.130;2022-12-24T12:27:04;154950.28;;;9.86;89.06
11888;BME280;6003;42.756;23.130;2022-12-24T12:29:35;154918.59;;;9.74;88.86
11888;BME280;6003;42.756;23.130;2022-12-24T12:32:09;154931.81;;;9.79;89.08
11888;BME280;6003;42.756;23.130;2022-12-24T12:34:40;154934.44;;;9.80;89.46
11888;BME280;6003;42.756;23.130;2022-12-24T12:37:13;154955.59;;;9.88;89.68
11888;BME280;6003;42.756;23.130;2022-12-24T12:39:40;154971.44;;;9.94;90.18
11888;BME280;6003;42.756;23.130;2022-12-24T12:42:14;154996.56;;;10.04;90.99
11888;BME280;6003;42.756;23.130;2022-12-24T12:45:01;155013.72;;;10.11;90.53
11888;BME280;6003;42.756;23.130;2022-12-24T12:47:48;155040.13;;;10.21;89.67
11888;BME280;6003;42.756;23.130;2022-12-24T12:50:21;155044.13;;;10.23;87.88
11888;BME280;6003;42.756;23.130;2022-12-24T12:53:09;155074.56;;;10.34;86.35
11888;BME280;6003;42.756;23.130;2022-12-24T12:55:49;155095.72;;;10.43;83.86
11888;BME280;6003;42.756;23.130;2022-12-24T12:58:21;155093.09;;;10.42;82.42
11888;BME280;6003;42.756;23.130;2022-12-24T13:00:52;155111.56;;;10.49;83.29
11888;BME280;6003;42.756;23.130;2022-12-24T13:03:31;155122.13;;;10.53;83.25
11888;BME280;6003;42.756;23.130;2022-12-24T13:06:24;155145.94;;;10.62;83.64
11888;BME280;6003;42.756;23.130;2022-12-24T13:12:00;155145.94;;;10.62;84.04
11888;BME280;6003;42.756;23.130;2022-12-24T13:14:40;155132.72;;;10.57;83.81
11888;BME280;6003;42.756;23.130;2022-12-24T13:20:20;155108.94;;;10.48;85.72
11888;BME280;6003;42.756;23.130;2022-12-24T13:22:56;155116.88;;;10.51;86.98
11888;BME280;6003;42.756;23.130;2022-12-24T13:25:35;155104.94;;;10.46;85.98